createdAt,value
2022-08-07T00:00:45.013Z,16.23
2022-08-07T00:03:36.680Z,16.26
2022-08-07T00:06:33.001Z,16.24
2022-08-07T00:09:35.389Z,16.09
2022-08-07T00:12:22.720Z,16.11
2022-08-07T00:15:12.745Z,16.07
2022-08-07T00:18:01.791Z,16.05
2022-08-07T00:20:50.701Z,16.01
2022-08-07T00:23:40.240Z,16.08
2022-08-07T00:26:49.058Z,15.99
2022-08-07T00:29:36.893Z,15.96
2022-08-07T00:32:28.759Z,15.93
2022-08-07T00:35:23.158Z,15.82
2022-08-07T00:38:10.217Z,15.61
2022-08-07T00:41:00.843Z,15.55
2022-08-07T00:43:58.939Z,15.49
2022-08-07T00:46:50.128Z,15.36
2022-08-07T00:50:19.612Z,15.36
2022-08-07T00:52:49.681Z,15.32
2022-08-07T00:56:03.431Z,15.28
2022-08-07T00:58:49.575Z,15.25
2022-08-07T01:01:44.193Z,15.24
2022-08-07T01:04:32.582Z,15.18
2022-08-07T01:07:22.044Z,15.13
2022-08-07T01:10:11.175Z,15.06
2022-08-07T01:13:02.683Z,15.03
2022-08-07T01:16:01.141Z,14.92
2022-08-07T01:18:53.266Z,14.86
2022-08-07T01:21:44.825Z,14.86
2022-08-07T01:24:37.360Z,14.85
2022-08-07T01:27:32.071Z,14.70
2022-08-07T01:30:20.867Z,14.64
2022-08-07T01:33:15.609Z,14.69
2022-08-07T01:36:09.428Z,14.63
2022-08-07T01:39:00.454Z,14.54
2022-08-07T01:42:07.245Z,14.54
2022-08-07T01:44:57.630Z,14.58
2022-08-07T01:48:18.212Z,14.47
2022-08-07T01:51:17.144Z,14.44
2022-08-07T01:54:21.980Z,14.37
2022-08-07T01:57:28.315Z,14.37
2022-08-07T02:00:28.818Z,14.37
2022-08-07T02:03:26.302Z,14.36
2022-08-07T02:06:31.750Z,14.35
2022-08-07T02:09:52.128Z,14.28
2022-08-07T02:12:40.953Z,14.25
2022-08-07T02:15:35.018Z,14.12
2022-08-07T02:18:23.478Z,14.08
2022-08-07T02:21:16.005Z,14.04
2022-08-07T02:24:05.204Z,14.06
2022-08-07T02:26:56.151Z,14.15
2022-08-07T02:29:54.166Z,14.05
2022-08-07T02:33:03.851Z,14.04
2022-08-07T02:36:30.964Z,14.09
2022-08-07T02:38:33.405Z,14.09
2022-08-07T02:41:07.983Z,13.94
2022-08-07T02:43:39.560Z,13.86
2022-08-07T02:46:08.859Z,13.89
2022-08-07T02:48:37.819Z,13.85
2022-08-07T02:51:29.222Z,13.82
2022-08-07T02:54:02.831Z,13.73
2022-08-07T02:56:32.543Z,13.70
2022-08-07T02:59:02.261Z,13.71
2022-08-07T03:01:35.661Z,13.69
2022-08-07T03:04:07.052Z,13.70
2022-08-07T03:06:35.700Z,13.62
2022-08-07T03:09:11.109Z,13.48
2022-08-07T03:11:52.369Z,13.44
2022-08-07T03:14:28.099Z,13.40
2022-08-07T03:16:56.915Z,13.43
2022-08-07T03:19:28.947Z,13.40
2022-08-07T03:22:18.980Z,13.45
2022-08-07T03:24:49.124Z,13.39
2022-08-07T03:27:30.448Z,13.23
2022-08-07T03:30:14.016Z,13.28
2022-08-07T03:32:57.113Z,13.26
2022-08-07T03:35:43.858Z,13.31
2022-08-07T03:38:21.020Z,13.24
2022-08-07T03:40:57.096Z,13.26
2022-08-07T03:43:26.844Z,13.26
2022-08-07T03:46:03.430Z,13.29
2022-08-07T03:48:32.907Z,13.16
2022-08-07T03:51:01.962Z,13.20
2022-08-07T03:54:05.833Z,13.17
2022-08-07T03:56:32.778Z,13.20
2022-08-07T03:59:09.803Z,13.23
2022-08-07T04:01:46.833Z,13.11
2022-08-07T04:04:21.751Z,13.12
2022-08-07T04:06:53.021Z,13.02
2022-08-07T04:09:23.674Z,13.09
2022-08-07T04:12:24.481Z,13.14
2022-08-07T04:14:49.211Z,13.04
2022-08-07T04:17:20.864Z,13.13
2022-08-07T04:19:54.998Z,13.19
2022-08-07T04:22:29.003Z,13.15
2022-08-07T04:25:01.663Z,13.24
2022-08-07T04:27:35.406Z,13.08
2022-08-07T04:30:10.261Z,13.15
2022-08-07T04:32:58.210Z,13.23
2022-08-07T04:35:26.466Z,13.26
2022-08-07T04:38:05.545Z,13.37
2022-08-07T04:40:52.027Z,13.37
2022-08-07T04:44:12.905Z,13.50
2022-08-07T04:46:42.820Z,13.54
2022-08-07T04:49:58.135Z,13.63
2022-08-07T04:53:03.315Z,13.47
2022-08-07T04:58:12.485Z,13.66
2022-08-07T04:59:16.911Z,13.79
2022-08-07T05:02:11.366Z,13.92
2022-08-07T05:05:51.960Z,14.14
2022-08-07T05:08:07.671Z,14.76
2022-08-07T05:10:41.747Z,15.49
2022-08-07T05:14:52.322Z,17.06
2022-08-07T05:16:10.377Z,17.98
2022-08-07T05:18:48.466Z,16.81
2022-08-07T05:22:00.169Z,15.62
2022-08-07T05:24:17.077Z,15.06
2022-08-07T05:26:47.246Z,14.94
2022-08-07T05:29:21.223Z,14.85
2022-08-07T05:31:52.940Z,14.84
2022-08-07T05:34:27.626Z,14.84
2022-08-07T05:36:56.108Z,15.14
2022-08-07T05:40:14.236Z,15.30
2022-08-07T05:42:34.404Z,17.00
2022-08-07T05:45:14.358Z,16.94
2022-08-07T05:48:01.690Z,17.53
2022-08-07T05:50:34.568Z,17.42
2022-08-07T05:53:03.261Z,17.84
2022-08-07T05:56:03.419Z,18.83
2022-08-07T05:58:30.252Z,20.65
2022-08-07T06:01:06.029Z,23.70
2022-08-07T06:03:56.753Z,24.77
2022-08-07T06:06:29.607Z,24.88
2022-08-07T06:09:04.706Z,26.58
2022-08-07T06:11:35.555Z,28.37
2022-08-07T06:14:11.624Z,29.57
2022-08-07T06:16:50.241Z,30.00
2022-08-07T06:19:52.026Z,30.08
2022-08-07T06:22:23.973Z,30.85
2022-08-07T06:25:15.855Z,32.59
2022-08-07T06:28:00.323Z,29.99
2022-08-07T06:30:36.115Z,28.70
2022-08-07T06:33:16.013Z,22.57
2022-08-07T06:36:06.786Z,22.13
2022-08-07T06:38:51.285Z,21.05
2022-08-07T06:42:00.737Z,19.81
2022-08-07T06:44:51.311Z,24.80
2022-08-07T06:47:19.086Z,27.55
2022-08-07T06:49:51.769Z,29.89
2022-08-07T06:52:31.638Z,30.93
2022-08-07T06:55:34.246Z,31.14
2022-08-07T06:58:09.496Z,31.88
2022-08-07T07:00:45.255Z,34.07
2022-08-07T07:03:14.320Z,34.74
2022-08-07T07:06:03.283Z,33.98
2022-08-07T07:08:33.066Z,33.89
2022-08-07T07:11:00.860Z,33.77
2022-08-07T07:13:58.293Z,36.92
2022-08-07T07:16:30.796Z,39.01
2022-08-07T07:19:54.767Z,36.86
2022-08-07T07:22:05.088Z,36.88
2022-08-07T07:24:43.144Z,37.20
2022-08-07T07:27:35.832Z,38.42
2022-08-07T07:30:32.449Z,38.03
2022-08-07T07:33:02.383Z,36.50
2022-08-07T07:35:33.530Z,37.19
2022-08-07T07:38:13.292Z,38.72
2022-08-07T07:40:41.895Z,39.85
2022-08-07T07:43:18.511Z,40.47
2022-08-07T07:46:49.875Z,41.62
2022-08-07T07:48:37.357Z,41.53
2022-08-07T07:51:07.833Z,41.81
2022-08-07T07:53:51.264Z,40.86
2022-08-07T07:56:30.399Z,36.52
2022-08-07T07:59:02.695Z,39.67
2022-08-07T08:02:03.109Z,37.19
2022-08-07T08:04:25.450Z,35.94
2022-08-07T08:06:55.150Z,36.07
2022-08-07T08:09:29.497Z,36.71
2022-08-07T08:12:02.116Z,41.79
2022-08-07T08:14:36.658Z,39.68
2022-08-07T08:17:56.094Z,37.53
2022-08-07T08:20:18.120Z,39.99
2022-08-07T08:23:15.015Z,43.41
2022-08-07T08:26:06.886Z,42.48
2022-08-07T08:28:44.818Z,40.16
2022-08-07T08:31:29.859Z,39.74
2022-08-07T08:34:06.107Z,43.35
2022-08-07T08:36:35.384Z,37.95
2022-08-07T08:39:03.943Z,40.64
2022-08-07T08:41:58.649Z,41.72
2022-08-07T08:44:33.534Z,40.80
2022-08-07T08:47:10.084Z,38.13
2022-08-07T08:50:04.956Z,36.85
2022-08-07T08:52:40.848Z,35.18
2022-08-07T08:55:54.435Z,36.03
2022-08-07T08:58:36.888Z,37.86
2022-08-07T09:01:20.556Z,36.93
2022-08-07T09:04:08.592Z,40.14
2022-08-07T09:07:11.898Z,41.71
2022-08-07T09:10:03.429Z,37.76
2022-08-07T09:12:53.575Z,37.95
2022-08-07T09:16:21.958Z,35.35
2022-08-07T09:18:41.485Z,37.11
2022-08-07T09:21:57.576Z,39.80
2022-08-07T09:25:11.831Z,37.28
2022-08-07T09:30:02.368Z,38.50
2022-08-07T09:31:17.753Z,36.56
2022-08-07T09:34:00.531Z,37.30
2022-08-07T09:36:37.040Z,37.86
2022-08-07T09:39:57.734Z,40.74
2022-08-07T09:42:40.505Z,40.52
2022-08-07T09:47:52.419Z,38.92
2022-08-07T09:49:59.461Z,43.66
2022-08-07T09:52:16.541Z,40.15
2022-08-07T09:54:47.257Z,39.56
2022-08-07T09:57:29.974Z,37.57
2022-08-07T10:00:14.689Z,40.84
2022-08-07T10:03:08.155Z,44.26
2022-08-07T10:06:00.604Z,42.10
2022-08-07T10:09:03.033Z,40.56
2022-08-07T10:12:01.963Z,38.03
2022-08-07T10:14:55.039Z,40.79
2022-08-07T10:18:03.333Z,46.83
2022-08-07T10:20:58.921Z,43.73
2022-08-07T10:24:04.734Z,41.85
2022-08-07T10:26:35.355Z,44.55
2022-08-07T10:29:30.332Z,46.70
2022-08-07T10:32:50.926Z,48.01
2022-08-07T10:35:25.726Z,44.43
2022-08-07T10:38:46.427Z,41.66
2022-08-07T10:41:46.545Z,40.54
2022-08-07T10:44:38.058Z,43.72
2022-08-07T10:47:52.930Z,43.21
2022-08-07T10:50:29.762Z,47.22
2022-08-07T10:53:44.086Z,45.27
2022-08-07T10:56:51.012Z,39.84
2022-08-07T10:59:47.498Z,36.35
2022-08-07T11:02:27.370Z,28.56
2022-08-07T11:05:19.450Z,27.24
2022-08-07T11:08:29.224Z,26.23
2022-08-07T11:11:02.917Z,26.22
2022-08-07T11:14:42.534Z,27.53
2022-08-07T11:16:37.328Z,28.57
2022-08-07T11:19:11.435Z,27.41
2022-08-07T11:21:47.686Z,27.29
2022-08-07T11:24:33.387Z,26.92
2022-08-07T11:27:21.491Z,27.90
2022-08-07T11:30:41.861Z,26.40
2022-08-07T11:33:14.309Z,26.09
2022-08-07T11:35:59.485Z,25.82
2022-08-07T11:38:40.048Z,26.32
2022-08-07T11:41:22.327Z,26.07
2022-08-07T11:44:11.785Z,25.57
2022-08-07T11:46:48.655Z,25.90
2022-08-07T11:50:11.542Z,26.45
2022-08-07T11:52:49.871Z,26.25
2022-08-07T11:56:15.534Z,26.84
2022-08-07T11:58:49.875Z,26.64
2022-08-07T12:01:19.948Z,26.34
2022-08-07T12:04:28.091Z,26.35
2022-08-07T12:07:23.585Z,26.91
2022-08-07T12:10:05.690Z,26.63
2022-08-07T12:12:43.861Z,26.24
2022-08-07T12:15:46.466Z,26.77
2022-08-07T12:18:34.888Z,26.24
2022-08-07T12:21:56.019Z,26.05
2022-08-07T12:25:17.909Z,26.15
2022-08-07T12:28:09.225Z,26.17
2022-08-07T12:30:40.728Z,26.23
2022-08-07T12:33:30.807Z,26.14
2022-08-07T12:36:02.276Z,25.97
2022-08-07T12:38:43.048Z,26.34
2022-08-07T12:41:14.673Z,26.41
2022-08-07T12:44:01.381Z,26.34
2022-08-07T12:47:27.109Z,26.20
2022-08-07T12:50:38.929Z,26.04
2022-08-07T12:53:18.041Z,25.99
2022-08-07T12:56:12.322Z,26.13
2022-08-07T12:58:57.261Z,26.09
2022-08-07T13:01:27.970Z,25.69
2022-08-07T13:04:32.554Z,25.68
2022-08-07T13:08:11.674Z,25.60
2022-08-07T13:10:37.735Z,25.63
2022-08-07T13:13:48.247Z,25.41
2022-08-07T13:16:19.684Z,25.78
2022-08-07T13:19:18.265Z,25.58
2022-08-07T13:22:19.368Z,26.06
2022-08-07T13:25:24.248Z,25.74
2022-08-07T13:28:13.765Z,25.68
2022-08-07T13:30:53.610Z,25.64
2022-08-07T13:34:30.796Z,25.93
2022-08-07T13:36:54.382Z,25.99
2022-08-07T13:39:49.122Z,25.63
2022-08-07T13:42:14.596Z,25.77
2022-08-07T13:45:11.480Z,25.76
2022-08-07T13:48:05.809Z,25.65
2022-08-07T13:50:35.435Z,25.64
2022-08-07T13:53:22.015Z,25.75
2022-08-07T13:55:56.879Z,25.84
2022-08-07T13:58:56.084Z,25.82
2022-08-07T14:01:26.286Z,25.82
2022-08-07T14:04:06.765Z,25.68
2022-08-07T14:06:38.374Z,25.91
2022-08-07T14:09:09.787Z,26.09
2022-08-07T14:11:53.140Z,26.04
2022-08-07T14:14:31.493Z,26.02
2022-08-07T14:17:31.982Z,26.12
2022-08-07T14:20:41.760Z,25.92
2022-08-07T14:22:51.633Z,25.94
2022-08-07T14:25:25.779Z,25.83
2022-08-07T14:28:12.452Z,25.94
2022-08-07T14:30:45.795Z,26.00
2022-08-07T14:33:15.087Z,25.92
2022-08-07T14:35:45.786Z,25.83
2022-08-07T14:38:30.726Z,26.01
2022-08-07T14:41:12.312Z,25.95
2022-08-07T14:43:58.116Z,25.84
2022-08-07T14:46:34.472Z,25.93
2022-08-07T14:49:17.332Z,25.77
2022-08-07T14:52:03.842Z,25.76
2022-08-07T14:54:45.470Z,25.95
2022-08-07T14:57:18.695Z,26.10
2022-08-07T15:00:04.558Z,26.18
2022-08-07T15:02:37.131Z,26.00
2022-08-07T15:05:19.681Z,25.93
2022-08-07T15:07:52.012Z,25.82
2022-08-07T15:10:26.664Z,26.05
2022-08-07T15:13:00.790Z,26.10
2022-08-07T15:15:41.987Z,25.97
2022-08-07T15:25:13.712Z,26.22
2022-08-07T15:27:08.755Z,26.16
2022-08-07T15:30:09.794Z,26.08
2022-08-07T15:32:39.029Z,25.99
2022-08-07T15:35:12.396Z,25.73
2022-08-07T15:38:17.235Z,25.79
2022-08-07T15:40:34.913Z,26.00
2022-08-07T15:43:10.811Z,25.96
2022-08-07T15:46:31.164Z,26.02
2022-08-07T15:49:03.620Z,25.68
2022-08-07T15:54:34.765Z,25.89
2022-08-07T15:57:39.204Z,25.87
2022-08-07T15:59:59.496Z,25.84
2022-08-07T16:02:54.764Z,25.71
2022-08-07T16:05:31.157Z,25.82
2022-08-07T16:08:30.251Z,25.95
2022-08-07T16:11:02.684Z,25.94
2022-08-07T16:13:59.438Z,25.66
2022-08-07T16:17:02.604Z,25.68
2022-08-07T16:20:00.013Z,25.83
2022-08-07T16:22:30.156Z,25.65
2022-08-07T16:25:55.332Z,25.68
2022-08-07T16:30:05.491Z,25.66
2022-08-07T16:32:07.918Z,25.65
2022-08-07T16:34:59.144Z,25.78
2022-08-07T16:38:03.478Z,25.58
2022-08-07T16:40:57.266Z,25.75
2022-08-07T16:44:40.445Z,25.67
2022-08-07T16:47:16.044Z,25.72
2022-08-07T16:50:28.022Z,25.72
2022-08-07T16:53:55.493Z,25.74
2022-08-07T16:56:20.264Z,25.71
2022-08-07T16:59:11.344Z,25.68
2022-08-07T17:01:47.813Z,25.62
2022-08-07T17:04:31.753Z,25.57
2022-08-07T17:07:28.353Z,25.60
2022-08-07T17:10:32.390Z,25.65
2022-08-07T17:13:23.801Z,25.57
2022-08-07T17:16:29.960Z,25.56
2022-08-07T17:19:15.854Z,25.51
2022-08-07T17:21:58.724Z,25.51
2022-08-07T17:24:47.966Z,25.53
2022-08-07T17:27:19.986Z,25.46
2022-08-07T17:30:14.177Z,25.48
2022-08-07T17:34:10.162Z,25.37
2022-08-07T17:36:20.517Z,25.25
2022-08-07T17:39:21.553Z,25.20
2022-08-07T17:42:02.897Z,25.08
2022-08-07T17:44:52.127Z,24.95
2022-08-07T17:47:58.135Z,24.98
2022-08-07T17:50:46.932Z,24.92
2022-08-07T17:54:01.609Z,24.85
2022-08-07T17:56:32.689Z,24.87
2022-08-07T17:59:35.623Z,24.83
2022-08-07T18:02:27.137Z,24.82
2022-08-07T18:05:20.963Z,24.76
2022-08-07T18:08:24.454Z,24.67
2022-08-07T18:12:20.000Z,24.59
2022-08-07T18:14:01.382Z,24.56
2022-08-07T18:16:32.871Z,24.49
2022-08-07T18:21:07.605Z,24.44
2022-08-07T18:22:40.074Z,24.28
2022-08-07T18:25:24.070Z,24.23
2022-08-07T18:28:34.123Z,24.20
2022-08-07T18:31:23.788Z,24.13
2022-08-07T18:34:40.925Z,24.01
2022-08-07T18:38:56.299Z,23.90
2022-08-07T18:40:59.298Z,23.81
2022-08-07T18:43:50.166Z,23.72
2022-08-07T18:46:28.448Z,23.60
2022-08-07T18:50:29.842Z,23.53
2022-08-07T18:52:34.806Z,23.46
2022-08-07T18:55:42.583Z,23.33
2022-08-07T18:58:18.096Z,23.12
2022-08-07T19:00:53.699Z,23.03
2022-08-07T19:03:49.632Z,23.04
2022-08-07T19:06:33.886Z,22.89
2022-08-07T19:09:56.866Z,22.77
2022-08-07T19:12:17.973Z,22.51
2022-08-07T19:16:03.020Z,22.34
2022-08-07T19:18:34.479Z,22.09
2022-08-07T19:21:08.932Z,22.04
2022-08-07T19:23:58.177Z,21.85
2022-08-07T19:26:43.444Z,21.85
2022-08-07T19:30:57.589Z,21.86
2022-08-07T19:32:29.001Z,21.92
2022-08-07T19:35:12.624Z,21.88
2022-08-07T19:37:55.123Z,21.79
2022-08-07T19:40:31.600Z,21.75
2022-08-07T19:43:12.035Z,21.71
2022-08-07T19:46:09.286Z,21.67
2022-08-07T19:48:44.011Z,21.56
2022-08-07T19:51:19.797Z,21.40
2022-08-07T19:54:34.049Z,21.29
2022-08-07T19:57:51.208Z,21.17
2022-08-07T19:59:39.822Z,21.18
2022-08-07T20:02:19.515Z,21.07
2022-08-07T20:04:50.169Z,21.00
2022-08-07T20:07:23.726Z,20.93
2022-08-07T20:10:38.444Z,20.95
2022-08-07T20:12:47.888Z,20.88
2022-08-07T20:15:24.351Z,20.87
2022-08-07T20:18:05.811Z,20.73
2022-08-07T20:20:42.782Z,20.65
2022-08-07T20:23:40.281Z,20.63
2022-08-07T20:26:10.061Z,20.48
2022-08-07T20:28:38.515Z,20.56
2022-08-07T20:31:21.120Z,20.63
2022-08-07T20:33:56.812Z,20.58
2022-08-07T20:36:27.169Z,20.41
2022-08-07T20:39:00.447Z,20.34
2022-08-07T20:41:38.466Z,20.17
2022-08-07T20:44:10.364Z,20.08
2022-08-07T20:46:43.867Z,20.11
2022-08-07T20:49:58.049Z,20.03
2022-08-07T20:52:00.567Z,19.96
2022-08-07T20:54:32.026Z,19.83
2022-08-07T20:57:06.845Z,19.75
2022-08-07T21:00:06.832Z,19.75
2022-08-07T21:02:54.520Z,19.67
2022-08-07T21:05:54.464Z,19.63
2022-08-07T21:08:51.010Z,19.61
2022-08-07T21:11:50.727Z,19.37
2022-08-07T21:14:48.463Z,19.26
2022-08-07T21:18:02.034Z,19.20
2022-08-07T21:20:56.106Z,19.17
2022-08-07T21:23:57.393Z,19.11
2022-08-07T21:26:51.002Z,18.92
2022-08-07T21:30:08.477Z,18.74
2022-08-07T21:33:10.700Z,18.69
2022-08-07T21:36:31.077Z,18.76
2022-08-07T21:39:45.252Z,18.65
2022-08-07T21:42:54.510Z,18.70
2022-08-07T21:46:08.116Z,18.64
2022-08-07T21:49:18.566Z,18.60
2022-08-07T21:52:16.712Z,18.62
2022-08-07T21:55:36.964Z,18.62
2022-08-07T21:58:32.860Z,18.60
2022-08-07T22:02:07.696Z,18.48
2022-08-07T22:04:39.096Z,18.30
2022-08-07T22:07:57.967Z,18.39
2022-08-07T22:10:50.203Z,18.33
2022-08-07T22:13:52.102Z,18.11
2022-08-07T22:17:00.778Z,17.99
2022-08-07T22:20:22.910Z,17.85
2022-08-07T22:23:21.488Z,17.97
2022-08-07T22:26:24.427Z,17.99
2022-08-07T22:29:34.017Z,18.09
2022-08-07T22:32:42.516Z,18.13
2022-08-07T22:35:45.896Z,17.83
2022-08-07T22:38:47.875Z,17.81
2022-08-07T22:42:04.142Z,17.80
2022-08-07T22:44:58.133Z,17.84
2022-08-07T22:47:49.464Z,17.73
2022-08-07T22:50:55.349Z,17.69
2022-08-07T22:54:06.527Z,17.61
2022-08-07T22:56:55.698Z,17.27
2022-08-07T22:59:57.375Z,17.38
2022-08-07T23:03:17.597Z,17.40
2022-08-07T23:06:15.480Z,17.46
2022-08-07T23:10:04.036Z,17.46
2022-08-07T23:12:56.573Z,17.31
2022-08-07T23:16:07.148Z,17.19
2022-08-07T23:19:58.003Z,17.09
2022-08-07T23:22:54.753Z,17.11
2022-08-07T23:25:51.599Z,16.81
2022-08-07T23:29:17.155Z,16.84
2022-08-07T23:34:23.538Z,16.82
2022-08-07T23:36:01.209Z,16.80
2022-08-07T23:38:55.409Z,16.78
2022-08-07T23:42:04.116Z,16.58
2022-08-07T23:46:02.221Z,16.77
2022-08-07T23:49:00.360Z,16.79
2022-08-07T23:53:01.376Z,16.66
2022-08-07T23:55:51.970Z,16.64
2022-08-07T23:58:49.827Z,16.53
